Auke Bay, Alaska
Current Conditions -  °F | °C
As of 5:53 AM on Friday 24 Oct 2014 (Local Time) from PAJN Reporting Station
Light Fog Light Fog  
Wind Chill: 39°   Ceiling: 4400
Heat Index: 39°   Visibility: 10mi
Dew Point: 38°   Wind: 0mph
Humidity: 96%   Direction: NA
Pressure: 29.84"   Gusts: NA
Location:  58.38°N, 134.67°W
Report Text: PAJN 241353Z 00000KT 10SM BCFG SCT002 BKN044 OVC055 04/03 A2984 RMK AO2 SLP103 BCFG N-E T00390033
Loading
Personal Weather Stations






























Interactive Weather Map
Tropical Storm Tracking
New forecast layout! Learn more

10-Day Weather Forecast

Advertisements
Track Severe Weather on mobile